createdAt,value
2018-11-22T00:00:05.139Z,980.25
2018-11-22T00:01:05.371Z,980.33
2018-11-22T00:02:05.441Z,980.27
2018-11-22T00:03:04.847Z,980.11
2018-11-22T00:04:04.926Z,980.25
2018-11-22T00:05:05.521Z,980.30
2018-11-22T00:06:05.425Z,980.14
2018-11-22T00:07:04.608Z,980.09
2018-11-22T00:08:04.885Z,980.22
2018-11-22T00:09:05.307Z,980.17
2018-11-22T00:10:04.570Z,980.33
2018-11-22T00:11:04.798Z,980.33
2018-11-22T00:12:05.395Z,980.30
2018-11-22T00:13:05.345Z,980.27
2018-11-22T00:14:05.356Z,980.24
2018-11-22T00:15:05.496Z,980.22
2018-11-22T00:16:04.615Z,980.27
2018-11-22T00:17:04.650Z,980.27
2018-11-22T00:18:05.011Z,980.06
2018-11-22T00:19:05.228Z,980.30
2018-11-22T00:20:04.621Z,980.25
2018-11-22T00:21:04.576Z,980.30
2018-11-22T00:22:04.989Z,980.09
2018-11-22T00:23:04.969Z,980.41
2018-11-22T00:24:04.511Z,980.25
2018-11-22T00:25:04.550Z,980.03
2018-11-22T00:26:04.562Z,980.27
2018-11-22T00:27:04.811Z,980.30
2018-11-22T00:28:10.342Z,980.30
2018-11-22T00:29:04.686Z,980.33
2018-11-22T00:30:04.900Z,980.30
2018-11-22T00:31:04.780Z,980.36
2018-11-22T00:32:04.865Z,980.36
2018-11-22T00:33:04.903Z,980.27
2018-11-22T00:34:04.824Z,980.30
2018-11-22T00:35:04.699Z,980.41
2018-11-22T00:36:05.106Z,980.17
2018-11-22T00:37:04.557Z,980.25
2018-11-22T00:38:04.714Z,980.36
2018-11-22T00:39:04.831Z,980.27
2018-11-22T00:40:05.090Z,980.30
2018-11-22T00:41:05.499Z,980.33
2018-11-22T00:42:04.877Z,980.30
2018-11-22T00:43:04.900Z,980.25
2018-11-22T00:44:05.296Z,980.36
2018-11-22T00:45:04.814Z,980.36
2018-11-22T00:46:05.081Z,980.47
2018-11-22T00:47:05.322Z,980.38
2018-11-22T00:48:05.301Z,980.25
2018-11-22T00:49:04.836Z,980.38
2018-11-22T00:50:04.852Z,980.33
2018-11-22T00:51:04.814Z,980.27
2018-11-22T00:52:05.201Z,980.17
2018-11-22T00:53:05.505Z,980.52
2018-11-22T00:54:05.491Z,980.36
2018-11-22T00:55:04.725Z,980.47
2018-11-22T00:56:04.976Z,980.44
2018-11-22T00:57:04.968Z,980.55
2018-11-22T00:58:05.170Z,980.55
2018-11-22T00:59:05.224Z,980.44
2018-11-22T01:00:05.268Z,980.36
2018-11-22T01:01:04.672Z,980.41
2018-11-22T01:02:04.919Z,980.50
2018-11-22T01:03:05.006Z,980.38
2018-11-22T01:04:09.981Z,980.44
2018-11-22T01:05:05.314Z,980.38
2018-11-22T01:06:05.441Z,980.38
2018-11-22T01:07:04.673Z,980.41
2018-11-22T01:08:04.899Z,980.47
2018-11-22T01:09:04.820Z,980.44
2018-11-22T01:10:04.692Z,980.41
2018-11-22T01:11:04.886Z,980.52
2018-11-22T01:12:04.921Z,980.55
2018-11-22T01:13:05.439Z,980.41
2018-11-22T01:14:04.606Z,980.69
2018-11-22T01:15:05.009Z,980.61
2018-11-22T01:16:05.126Z,980.63
2018-11-22T01:17:04.999Z,980.52
2018-11-22T01:18:05.102Z,980.55
2018-11-22T01:19:04.620Z,980.36
2018-11-22T01:20:05.155Z,980.61
2018-11-22T01:21:05.030Z,980.47
2018-11-22T01:22:05.080Z,980.52
2018-11-22T01:23:05.129Z,980.36
2018-11-22T01:24:05.210Z,980.63
2018-11-22T01:25:05.107Z,980.49
2018-11-22T01:26:05.116Z,980.30
2018-11-22T01:27:04.621Z,980.44
2018-11-22T01:28:04.655Z,980.44
2018-11-22T01:29:04.766Z,980.49
2018-11-22T01:30:05.064Z,980.47
2018-11-22T01:31:05.346Z,980.35
2018-11-22T01:32:04.571Z,980.38
2018-11-22T01:33:04.547Z,980.58
2018-11-22T01:34:04.865Z,980.41
2018-11-22T01:35:05.090Z,980.49
2018-11-22T01:36:05.168Z,980.52
2018-11-22T01:37:05.322Z,980.41
2018-11-22T01:38:10.253Z,980.41
2018-11-22T01:39:04.568Z,980.27
2018-11-22T01:40:04.570Z,980.44
2018-11-22T01:41:04.586Z,980.41
2018-11-22T01:42:05.292Z,980.61
2018-11-22T01:43:05.216Z,980.22
2018-11-22T01:44:05.351Z,980.41
2018-11-22T01:45:05.536Z,980.44
2018-11-22T01:46:05.499Z,980.38
2018-11-22T01:47:05.418Z,980.41
2018-11-22T01:48:04.838Z,980.36
2018-11-22T01:49:05.450Z,980.47
2018-11-22T01:50:05.317Z,980.14
2018-11-22T01:51:05.293Z,980.30
2018-11-22T01:52:04.705Z,980.38
2018-11-22T01:53:04.937Z,980.27
2018-11-22T01:54:05.152Z,980.33
2018-11-22T01:55:05.101Z,980.47
2018-11-22T01:56:05.312Z,980.33
2018-11-22T01:57:05.397Z,980.38
2018-11-22T01:58:05.380Z,980.38
2018-11-22T01:59:05.054Z,980.38
2018-11-22T02:00:04.987Z,980.33
2018-11-22T02:01:05.037Z,980.30
2018-11-22T02:02:05.040Z,980.27
2018-11-22T02:03:04.998Z,980.27
2018-11-22T02:04:05.184Z,980.27
2018-11-22T02:05:05.116Z,980.24
2018-11-22T02:06:05.179Z,980.38
2018-11-22T02:07:05.112Z,980.35
2018-11-22T02:08:04.696Z,980.27
2018-11-22T02:09:04.956Z,980.24
2018-11-22T02:10:04.944Z,980.30
2018-11-22T02:11:05.105Z,980.33
2018-11-22T02:12:04.727Z,980.33
2018-11-22T02:13:05.249Z,980.24
2018-11-22T02:14:04.604Z,980.33
2018-11-22T02:15:04.633Z,980.38
2018-11-22T02:16:04.657Z,980.27
2018-11-22T02:17:04.756Z,980.33
2018-11-22T02:18:04.745Z,980.27
2018-11-22T02:19:05.015Z,980.33
2018-11-22T02:20:04.528Z,980.30
2018-11-22T02:21:04.728Z,980.35
2018-11-22T02:22:05.071Z,980.35
2018-11-22T02:23:05.068Z,980.17
2018-11-22T02:24:05.068Z,980.41
2018-11-22T02:25:05.225Z,980.27
2018-11-22T02:26:05.122Z,980.24
2018-11-22T02:27:05.170Z,980.35
2018-11-22T02:28:10.348Z,980.21
2018-11-22T02:29:04.708Z,980.49
2018-11-22T02:30:04.812Z,980.30
2018-11-22T02:31:04.738Z,980.27
2018-11-22T02:32:05.463Z,980.27
2018-11-22T02:33:04.443Z,980.17
2018-11-22T02:34:04.632Z,980.35
2018-11-22T02:35:04.700Z,980.32
2018-11-22T02:36:04.744Z,980.21
2018-11-22T02:37:04.565Z,980.30
2018-11-22T02:38:05.274Z,980.41
2018-11-22T02:39:05.224Z,980.27
2018-11-22T02:40:05.421Z,980.35
2018-11-22T02:41:04.651Z,980.32
2018-11-22T02:42:04.627Z,980.27
2018-11-22T02:43:04.721Z,980.27
2018-11-22T02:44:04.610Z,980.27
2018-11-22T02:45:04.578Z,980.24
2018-11-22T02:46:04.638Z,980.32
2018-11-22T02:47:05.045Z,980.27
2018-11-22T02:48:09.915Z,980.38
2018-11-22T02:49:05.193Z,980.35
2018-11-22T02:50:05.366Z,980.30
2018-11-22T02:51:05.184Z,980.24
2018-11-22T02:52:05.173Z,980.27
2018-11-22T02:53:05.402Z,980.38
2018-11-22T02:54:05.257Z,980.41
2018-11-22T02:55:05.123Z,980.32
2018-11-22T02:56:04.539Z,980.30
2018-11-22T02:57:04.615Z,980.38
2018-11-22T02:58:05.039Z,980.32
2018-11-22T02:59:04.940Z,980.32
2018-11-22T03:00:05.386Z,980.27
2018-11-22T03:01:05.521Z,980.38
2018-11-22T03:02:04.695Z,980.35
2018-11-22T03:03:04.852Z,980.38
2018-11-22T03:04:04.805Z,980.35
2018-11-22T03:05:04.933Z,980.44
2018-11-22T03:06:04.567Z,980.44
2018-11-22T03:07:04.673Z,980.41
2018-11-22T03:08:04.934Z,980.55
2018-11-22T03:09:04.936Z,980.44
2018-11-22T03:10:05.100Z,980.58
2018-11-22T03:11:04.624Z,980.46
2018-11-22T03:12:05.030Z,980.46
2018-11-22T03:13:05.383Z,980.49
2018-11-22T03:14:05.473Z,980.66
2018-11-22T03:15:05.438Z,980.49
2018-11-22T03:16:05.361Z,980.38
2018-11-22T03:17:04.621Z,980.63
2018-11-22T03:18:04.826Z,980.63
2018-11-22T03:19:04.452Z,980.44
2018-11-22T03:20:05.030Z,980.55
2018-11-22T03:21:04.989Z,980.60
2018-11-22T03:22:04.916Z,980.63
2018-11-22T03:23:05.309Z,980.49
2018-11-22T03:24:05.362Z,980.55
2018-11-22T03:25:04.741Z,980.60
2018-11-22T03:26:04.737Z,980.49
2018-11-22T03:27:04.825Z,980.55
2018-11-22T03:28:09.719Z,980.60
2018-11-22T03:29:04.993Z,980.63
2018-11-22T03:30:05.041Z,980.60
2018-11-22T03:31:04.534Z,980.60
2018-11-22T03:32:04.528Z,980.63
2018-11-22T03:33:04.547Z,980.52
2018-11-22T03:34:05.195Z,980.55
2018-11-22T03:35:05.535Z,980.49
2018-11-22T03:36:04.572Z,980.46
2018-11-22T03:37:04.715Z,980.49
2018-11-22T03:38:04.965Z,980.60
2018-11-22T03:39:05.546Z,980.58
2018-11-22T03:40:04.864Z,980.63
2018-11-22T03:41:05.331Z,980.66
2018-11-22T03:42:04.573Z,980.55
2018-11-22T03:43:04.580Z,980.52
2018-11-22T03:44:05.203Z,980.49
2018-11-22T03:45:05.439Z,980.55
2018-11-22T03:46:04.455Z,980.49
2018-11-22T03:47:04.490Z,980.63
2018-11-22T03:48:04.455Z,980.38
2018-11-22T03:49:04.619Z,980.55
2018-11-22T03:50:04.929Z,980.63
2018-11-22T03:51:05.196Z,980.74
2018-11-22T03:52:05.277Z,980.66
2018-11-22T03:53:04.723Z,980.52
2018-11-22T03:54:04.707Z,980.58
2018-11-22T03:55:04.942Z,980.60
2018-11-22T03:56:05.372Z,980.60
2018-11-22T03:57:04.882Z,980.52
2018-11-22T03:58:05.115Z,980.66
2018-11-22T03:59:05.125Z,980.60
2018-11-22T04:00:05.189Z,980.55
2018-11-22T04:01:05.058Z,980.55
2018-11-22T04:02:05.090Z,980.55
2018-11-22T04:03:05.029Z,980.63
2018-11-22T04:04:05.140Z,980.41
2018-11-22T04:05:04.719Z,980.58
2018-11-22T04:06:05.042Z,980.55
2018-11-22T04:07:04.833Z,980.46
2018-11-22T04:08:05.039Z,980.49
2018-11-22T04:09:04.444Z,980.46
2018-11-22T04:10:04.752Z,980.55
2018-11-22T04:11:05.242Z,980.41
2018-11-22T04:12:05.168Z,980.52
2018-11-22T04:13:05.234Z,980.60
2018-11-22T04:14:05.358Z,980.63
2018-11-22T04:15:05.270Z,980.57
2018-11-22T04:16:05.101Z,980.57
2018-11-22T04:17:05.330Z,980.60
2018-11-22T04:18:05.420Z,980.46
2018-11-22T04:19:04.799Z,980.60
2018-11-22T04:20:05.029Z,980.57
2018-11-22T04:21:04.820Z,980.52
2018-11-22T04:22:05.063Z,980.55
2018-11-22T04:23:05.100Z,980.63
2018-11-22T04:24:05.420Z,980.66
2018-11-22T04:25:04.622Z,980.44
2018-11-22T04:26:04.922Z,980.52
2018-11-22T04:27:04.915Z,980.57
2018-11-22T04:28:09.954Z,980.63
2018-11-22T04:29:05.231Z,980.43
2018-11-22T04:30:05.331Z,980.55
2018-11-22T04:31:04.692Z,980.49
2018-11-22T04:32:04.616Z,980.69
2018-11-22T04:33:04.958Z,980.55
2018-11-22T04:34:05.007Z,980.74
2018-11-22T04:35:05.485Z,980.52
2018-11-22T04:36:05.390Z,980.57
2018-11-22T04:37:04.780Z,980.55
2018-11-22T04:38:04.766Z,980.41
2018-11-22T04:39:04.770Z,980.44
2018-11-22T04:40:05.212Z,980.46
2018-11-22T04:41:05.091Z,980.46
2018-11-22T04:42:04.680Z,980.57
2018-11-22T04:43:04.644Z,980.41
2018-11-22T04:44:04.764Z,980.46
2018-11-22T04:45:04.782Z,980.57
2018-11-22T04:46:04.716Z,980.52
2018-11-22T04:47:04.913Z,980.57
2018-11-22T04:48:05.027Z,980.46
2018-11-22T04:49:05.026Z,980.49
2018-11-22T04:50:05.029Z,980.57
2018-11-22T04:51:05.116Z,980.41
2018-11-22T04:52:05.481Z,980.43
2018-11-22T04:53:04.686Z,980.49
2018-11-22T04:54:05.146Z,980.63
2018-11-22T04:55:05.382Z,980.46
2018-11-22T04:56:05.449Z,980.54
2018-11-22T04:57:04.543Z,980.49
2018-11-22T04:58:04.991Z,980.54
2018-11-22T04:59:04.968Z,980.49
2018-11-22T05:00:05.525Z,980.49
2018-11-22T05:01:04.557Z,980.60
2018-11-22T05:02:04.817Z,980.68
2018-11-22T05:03:05.442Z,980.46
2018-11-22T05:04:05.338Z,980.46
2018-11-22T05:05:05.268Z,980.57
2018-11-22T05:06:04.826Z,980.54
2018-11-22T05:07:04.892Z,980.46
2018-11-22T05:08:04.994Z,980.40
2018-11-22T05:09:04.655Z,980.52
2018-11-22T05:10:04.501Z,980.54
2018-11-22T05:11:04.744Z,980.49
2018-11-22T05:12:04.854Z,980.40
2018-11-22T05:13:04.963Z,980.52
2018-11-22T05:14:05.049Z,980.49
2018-11-22T05:15:04.435Z,980.52
2018-11-22T05:16:04.811Z,980.63
2018-11-22T05:17:05.185Z,980.43
2018-11-22T05:18:05.239Z,980.52
2018-11-22T05:19:05.237Z,980.43
2018-11-22T05:20:04.611Z,980.46
2018-11-22T05:21:04.904Z,980.46
2018-11-22T05:22:04.666Z,980.54
2018-11-22T05:23:05.107Z,980.46
2018-11-22T05:24:04.486Z,980.40
2018-11-22T05:25:05.450Z,980.51
2018-11-22T05:26:04.993Z,980.51
2018-11-22T05:27:04.601Z,980.57
2018-11-22T05:28:04.835Z,980.54
2018-11-22T05:29:05.675Z,980.60
2018-11-22T05:30:04.912Z,980.51
2018-11-22T05:31:04.837Z,980.54
2018-11-22T05:32:05.084Z,980.49
2018-11-22T05:33:05.351Z,980.60
2018-11-22T05:34:04.572Z,980.54
2018-11-22T05:35:04.736Z,980.54
2018-11-22T05:36:04.919Z,980.60
2018-11-22T05:37:05.405Z,980.46
2018-11-22T05:38:04.616Z,980.62
2018-11-22T05:39:04.643Z,980.43
2018-11-22T05:40:04.914Z,980.54
2018-11-22T05:41:04.932Z,980.60
2018-11-22T05:42:04.811Z,980.54
2018-11-22T05:43:05.320Z,980.54
2018-11-22T05:44:05.312Z,980.54
2018-11-22T05:45:04.595Z,980.49
2018-11-22T05:46:05.001Z,980.51
2018-11-22T05:47:05.331Z,980.43
2018-11-22T05:48:04.473Z,980.54
2018-11-22T05:49:04.460Z,980.54
2018-11-22T05:50:05.164Z,980.51
2018-11-22T05:51:04.459Z,980.49
2018-11-22T05:52:04.858Z,980.57
2018-11-22T05:53:04.874Z,980.43
2018-11-22T05:54:05.107Z,980.54
2018-11-22T05:55:05.194Z,980.35
2018-11-22T05:56:05.145Z,980.54
2018-11-22T05:57:09.696Z,980.40
2018-11-22T05:58:05.073Z,980.49
2018-11-22T05:59:04.539Z,980.51
2018-11-22T06:00:04.919Z,980.40
2018-11-22T06:01:05.211Z,980.49
2018-11-22T06:02:05.115Z,980.54
2018-11-22T06:03:04.647Z,980.57
2018-11-22T06:04:04.768Z,980.54
2018-11-22T06:05:05.125Z,980.49
2018-11-22T06:06:05.348Z,980.37
2018-11-22T06:07:05.454Z,980.49
2018-11-22T06:08:05.407Z,980.62
2018-11-22T06:09:05.433Z,980.54
2018-11-22T06:10:05.537Z,980.43
2018-11-22T06:11:04.931Z,980.46
2018-11-22T06:12:04.755Z,980.62
2018-11-22T06:13:05.042Z,980.54
2018-11-22T06:14:05.299Z,980.57
2018-11-22T06:15:05.155Z,980.65
2018-11-22T06:16:04.834Z,980.65
2018-11-22T06:17:05.432Z,980.37
2018-11-22T06:18:05.404Z,980.46
2018-11-22T06:19:04.635Z,980.46
2018-11-22T06:20:04.629Z,980.60
2018-11-22T06:21:04.814Z,980.60
2018-11-22T06:22:05.362Z,980.54
2018-11-22T06:23:04.897Z,980.60
2018-11-22T06:24:05.032Z,980.51
2018-11-22T06:25:05.496Z,980.54
2018-11-22T06:26:05.377Z,980.74
2018-11-22T06:27:05.459Z,980.68
2018-11-22T06:28:10.424Z,980.76
2018-11-22T06:29:04.879Z,980.76
2018-11-22T06:30:04.771Z,980.62
2018-11-22T06:31:06.793Z,980.60
2018-11-22T06:32:05.286Z,980.54
2018-11-22T06:33:05.448Z,980.71
2018-11-22T06:34:04.931Z,980.60
2018-11-22T06:35:04.961Z,980.68
2018-11-22T06:36:04.928Z,980.68
2018-11-22T06:37:05.156Z,980.76
2018-11-22T06:38:05.140Z,980.71
2018-11-22T06:39:04.838Z,980.71
2018-11-22T06:40:04.967Z,980.79
2018-11-22T06:41:04.737Z,980.79
2018-11-22T06:42:04.957Z,980.71
2018-11-22T06:43:05.020Z,980.85
2018-11-22T06:44:04.609Z,980.82
2018-11-22T06:45:04.635Z,980.74
2018-11-22T06:46:04.595Z,980.68
2018-11-22T06:47:04.709Z,980.71
2018-11-22T06:48:04.519Z,980.82
2018-11-22T06:49:05.107Z,980.71
2018-11-22T06:50:04.678Z,980.79
2018-11-22T06:51:04.731Z,980.76
2018-11-22T06:52:05.199Z,980.93
2018-11-22T06:53:05.236Z,980.88
2018-11-22T06:54:05.719Z,980.82
2018-11-22T06:55:05.404Z,980.79
2018-11-22T06:56:05.402Z,980.82
2018-11-22T06:57:05.012Z,980.82
2018-11-22T06:58:05.109Z,980.90
2018-11-22T06:59:05.026Z,980.79
2018-11-22T07:00:05.067Z,980.85
2018-11-22T07:01:05.125Z,980.96
2018-11-22T07:02:05.355Z,980.87
2018-11-22T07:03:05.220Z,980.85
2018-11-22T07:04:05.475Z,980.82
2018-11-22T07:05:04.793Z,980.85
2018-11-22T07:06:04.877Z,980.82
2018-11-22T07:07:05.255Z,980.98
2018-11-22T07:08:04.551Z,980.93
2018-11-22T07:09:04.879Z,980.96
2018-11-22T07:10:05.439Z,980.90
2018-11-22T07:11:04.432Z,980.96
2018-11-22T07:12:05.067Z,980.87
2018-11-22T07:13:05.007Z,980.98
2018-11-22T07:14:05.128Z,980.96
2018-11-22T07:15:04.686Z,980.96
2018-11-22T07:16:04.639Z,980.90
2018-11-22T07:17:04.697Z,980.90
2018-11-22T07:18:04.677Z,980.96
2018-11-22T07:19:04.695Z,980.96
2018-11-22T07:20:04.651Z,981.04
2018-11-22T07:21:04.651Z,980.98
2018-11-22T07:22:04.851Z,980.95
2018-11-22T07:23:04.765Z,980.98
2018-11-22T07:24:05.411Z,981.01
2018-11-22T07:25:04.945Z,980.90
2018-11-22T07:26:04.594Z,981.09
2018-11-22T07:27:04.568Z,980.95
2018-11-22T07:28:09.659Z,981.09
2018-11-22T07:29:04.919Z,980.95
2018-11-22T07:30:04.621Z,980.95
2018-11-22T07:31:04.830Z,980.93
2018-11-22T07:32:04.780Z,980.95
2018-11-22T07:33:05.410Z,980.93
2018-11-22T07:34:04.992Z,981.15
2018-11-22T07:35:05.071Z,980.95
2018-11-22T07:36:05.143Z,981.04
2018-11-22T07:37:05.529Z,980.93
2018-11-22T07:38:04.590Z,980.98
2018-11-22T07:39:04.569Z,981.09
2018-11-22T07:40:04.725Z,981.09
2018-11-22T07:41:04.963Z,980.92
2018-11-22T07:42:04.969Z,981.06
2018-11-22T07:43:05.111Z,981.09
2018-11-22T07:44:04.610Z,981.04
2018-11-22T07:45:04.987Z,981.04
2018-11-22T07:46:05.619Z,981.04
2018-11-22T07:47:04.438Z,981.04
2018-11-22T07:48:10.188Z,981.01
2018-11-22T07:49:04.598Z,981.01
2018-11-22T07:50:04.715Z,981.12
2018-11-22T07:51:05.325Z,981.12
2018-11-22T07:52:05.386Z,980.95
2018-11-22T07:53:05.477Z,981.04
2018-11-22T07:54:04.528Z,981.01
2018-11-22T07:55:04.936Z,980.98
2018-11-22T07:56:05.027Z,981.12
2018-11-22T07:57:05.069Z,981.03
2018-11-22T07:58:04.587Z,981.12
2018-11-22T07:59:04.660Z,981.01
2018-11-22T08:00:04.529Z,981.06
2018-11-22T08:01:04.873Z,981.12
2018-11-22T08:02:05.366Z,981.15
2018-11-22T08:03:05.152Z,981.15
2018-11-22T08:04:04.616Z,981.01
2018-11-22T08:05:04.577Z,981.12
2018-11-22T08:06:05.249Z,981.06
2018-11-22T08:07:05.318Z,980.95
2018-11-22T08:08:05.291Z,981.26
2018-11-22T08:09:05.345Z,981.12
2018-11-22T08:10:05.390Z,981.06
2018-11-22T08:11:04.519Z,981.09
2018-11-22T08:12:05.720Z,981.06
2018-11-22T08:13:05.118Z,981.00
2018-11-22T08:14:05.317Z,981.23
2018-11-22T08:15:05.202Z,981.09
2018-11-22T08:16:04.586Z,981.23
2018-11-22T08:17:04.694Z,981.25
2018-11-22T08:18:04.623Z,981.31
2018-11-22T08:19:05.191Z,981.20
2018-11-22T08:20:05.379Z,981.20
2018-11-22T08:21:05.397Z,981.20
2018-11-22T08:22:05.369Z,981.23
2018-11-22T08:23:05.524Z,981.03
2018-11-22T08:24:04.589Z,981.20
2018-11-22T08:25:05.118Z,981.20
2018-11-22T08:26:05.064Z,981.14
2018-11-22T08:27:04.744Z,981.14
2018-11-22T08:28:04.757Z,981.14
2018-11-22T08:29:05.242Z,981.25
2018-11-22T08:30:05.215Z,981.17
2018-11-22T08:31:05.283Z,981.11
2018-11-22T08:32:04.817Z,981.23
2018-11-22T08:33:04.843Z,981.25
2018-11-22T08:34:05.054Z,981.28
2018-11-22T08:35:05.105Z,980.97
2018-11-22T08:36:05.175Z,981.28
2018-11-22T08:37:05.232Z,981.20
2018-11-22T08:38:05.181Z,981.22
2018-11-22T08:39:05.247Z,981.17
2018-11-22T08:40:04.650Z,981.36
2018-11-22T08:41:05.394Z,981.39
2018-11-22T08:42:05.440Z,981.25
2018-11-22T08:43:04.724Z,981.36
2018-11-22T08:44:04.779Z,981.31
2018-11-22T08:45:10.138Z,981.25
2018-11-22T08:46:04.635Z,981.36
2018-11-22T08:47:04.916Z,981.31
2018-11-22T08:48:04.837Z,981.25
2018-11-22T08:49:04.456Z,981.25
2018-11-22T08:50:04.794Z,981.20
2018-11-22T08:51:05.117Z,981.28
2018-11-22T08:52:05.212Z,981.25
2018-11-22T08:53:05.110Z,981.25
2018-11-22T08:54:05.140Z,981.25
2018-11-22T08:55:05.329Z,981.25
2018-11-22T08:56:04.553Z,981.33
2018-11-22T08:57:04.661Z,981.17
2018-11-22T08:58:04.496Z,981.31
2018-11-22T08:59:04.620Z,981.39
2018-11-22T09:00:05.107Z,981.31
2018-11-22T09:01:05.273Z,981.31
2018-11-22T09:02:05.309Z,981.30
2018-11-22T09:03:04.504Z,981.22
2018-11-22T09:04:05.034Z,981.42
2018-11-22T09:05:04.500Z,981.30
2018-11-22T09:06:04.685Z,981.33
2018-11-22T09:07:04.477Z,981.39
2018-11-22T09:08:05.029Z,981.30
2018-11-22T09:09:05.132Z,981.19
2018-11-22T09:10:05.347Z,981.30
2018-11-22T09:11:04.535Z,981.25
2018-11-22T09:12:05.031Z,981.19
2018-11-22T09:13:05.232Z,981.36
2018-11-22T09:14:05.074Z,981.25
2018-11-22T09:15:05.441Z,981.19
2018-11-22T09:16:05.555Z,981.27
2018-11-22T09:17:04.629Z,981.30
2018-11-22T09:18:04.620Z,981.39
2018-11-22T09:19:04.788Z,981.36
2018-11-22T09:20:04.746Z,981.24
2018-11-22T09:21:04.901Z,981.41
2018-11-22T09:22:04.920Z,981.47
2018-11-22T09:23:05.285Z,981.38
2018-11-22T09:24:05.401Z,981.36
2018-11-22T09:25:04.735Z,981.52
2018-11-22T09:26:04.870Z,981.35
2018-11-22T09:27:04.907Z,981.52
2018-11-22T09:28:04.885Z,981.35
2018-11-22T09:29:05.148Z,981.41
2018-11-22T09:30:05.211Z,981.38
2018-11-22T09:31:04.666Z,981.46
2018-11-22T09:32:04.721Z,981.59
2018-11-22T09:33:05.091Z,981.35
2018-11-22T09:34:05.044Z,981.52
2018-11-22T09:35:05.262Z,981.56
2018-11-22T09:36:05.415Z,981.62
2018-11-22T09:37:05.522Z,981.43
2018-11-22T09:38:04.708Z,981.52
2018-11-22T09:39:04.949Z,981.43
2018-11-22T09:40:05.102Z,981.49
2018-11-22T09:41:05.345Z,981.46
2018-11-22T09:42:04.738Z,981.35
2018-11-22T09:43:05.379Z,981.43
2018-11-22T09:44:04.755Z,981.37
2018-11-22T09:45:05.111Z,981.43
2018-11-22T09:46:05.259Z,981.48
2018-11-22T09:47:05.343Z,981.31
2018-11-22T09:48:05.369Z,981.48
2018-11-22T09:49:04.869Z,981.34
2018-11-22T09:50:05.130Z,981.48
2018-11-22T09:51:04.611Z,981.37
2018-11-22T09:52:04.474Z,981.29
2018-11-22T09:53:10.118Z,981.45
2018-11-22T09:54:04.569Z,981.51
2018-11-22T09:55:04.924Z,981.37
2018-11-22T09:56:04.868Z,981.34
2018-11-22T09:57:05.063Z,981.48
2018-11-22T09:58:05.085Z,981.34
2018-11-22T09:59:05.368Z,981.42
2018-11-22T10:00:05.362Z,981.26
2018-11-22T10:01:05.551Z,981.42
2018-11-22T10:02:05.454Z,981.45
2018-11-22T10:03:05.269Z,981.31
2018-11-22T10:04:05.401Z,981.37
2018-11-22T10:05:05.344Z,981.45
2018-11-22T10:06:05.271Z,981.39
2018-11-22T10:07:04.916Z,981.22
2018-11-22T10:08:05.286Z,981.39
2018-11-22T10:09:04.724Z,981.31
2018-11-22T10:10:04.709Z,981.39
2018-11-22T10:11:05.382Z,981.33
2018-11-22T10:12:05.387Z,981.36
2018-11-22T10:13:04.436Z,981.22
2018-11-22T10:14:04.499Z,981.30
2018-11-22T10:15:04.705Z,981.44
2018-11-22T10:16:05.029Z,981.24
2018-11-22T10:17:05.169Z,981.47
2018-11-22T10:18:04.536Z,981.36
2018-11-22T10:19:04.528Z,981.38
2018-11-22T10:20:04.741Z,981.38
2018-11-22T10:21:05.369Z,981.36
2018-11-22T10:22:05.394Z,981.47
2018-11-22T10:23:05.157Z,981.44
2018-11-22T10:24:05.554Z,981.38
2018-11-22T10:25:04.649Z,981.27
2018-11-22T10:26:05.273Z,981.36
2018-11-22T10:27:05.267Z,981.41
2018-11-22T10:28:09.956Z,981.41
2018-11-22T10:29:05.396Z,981.27
2018-11-22T10:30:04.658Z,981.33
2018-11-22T10:31:05.211Z,981.41
2018-11-22T10:32:05.491Z,981.24
2018-11-22T10:33:04.557Z,981.35
2018-11-22T10:34:04.793Z,981.24
2018-11-22T10:35:04.845Z,981.32
2018-11-22T10:36:04.972Z,981.46
2018-11-22T10:37:05.208Z,981.30
2018-11-22T10:38:05.285Z,981.21
2018-11-22T10:39:04.820Z,981.27
2018-11-22T10:40:05.052Z,981.07
2018-11-22T10:41:04.615Z,981.32
2018-11-22T10:42:04.727Z,981.26
2018-11-22T10:44:04.605Z,981.24
2018-11-22T10:45:04.719Z,981.32
2018-11-22T10:46:04.964Z,981.29
2018-11-22T10:47:04.732Z,981.26
2018-11-22T10:48:10.063Z,981.34
2018-11-22T10:49:04.524Z,981.32
2018-11-22T10:50:05.104Z,981.23
2018-11-22T10:51:05.104Z,981.37
2018-11-22T10:52:05.104Z,981.29
2018-11-22T10:53:05.280Z,981.34
2018-11-22T10:54:04.612Z,981.15
2018-11-22T10:55:04.859Z,981.31
2018-11-22T10:56:05.038Z,981.45
2018-11-22T10:57:05.128Z,981.34
2018-11-22T10:58:05.277Z,981.29
2018-11-22T10:59:05.433Z,981.31
2018-11-22T11:00:04.714Z,981.29
2018-11-22T11:01:04.594Z,981.45
2018-11-22T11:02:04.753Z,981.40
2018-11-22T11:03:05.021Z,981.34
2018-11-22T11:04:05.056Z,981.43
2018-11-22T11:05:05.102Z,981.43
2018-11-22T11:06:05.329Z,981.28
2018-11-22T11:07:04.512Z,981.37
2018-11-22T11:08:04.849Z,981.34
2018-11-22T11:09:04.729Z,981.31
2018-11-22T11:10:04.854Z,981.31
2018-11-22T11:11:05.308Z,981.31
2018-11-22T11:12:05.178Z,981.23
2018-11-22T11:13:05.402Z,981.40
2018-11-22T11:14:05.093Z,981.23
2018-11-22T11:15:04.775Z,981.34
2018-11-22T11:16:04.692Z,981.17
2018-11-22T11:17:04.852Z,981.39
2018-11-22T11:18:04.804Z,981.45
2018-11-22T11:19:05.407Z,981.42
2018-11-22T11:20:05.625Z,981.48
2018-11-22T11:21:04.977Z,981.34
2018-11-22T11:22:05.390Z,981.42
2018-11-22T11:23:04.562Z,981.31
2018-11-22T11:24:04.538Z,981.39
2018-11-22T11:25:04.926Z,981.31
2018-11-22T11:26:05.365Z,981.28
2018-11-22T11:27:05.402Z,981.42
2018-11-22T11:28:09.613Z,981.31
2018-11-22T11:29:04.927Z,981.34
2018-11-22T11:30:05.056Z,981.42
2018-11-22T11:31:04.983Z,981.45
2018-11-22T11:32:05.147Z,981.28
2018-11-22T11:33:04.836Z,981.39
2018-11-22T11:34:05.371Z,981.14
2018-11-22T11:35:04.719Z,981.25
2018-11-22T11:36:04.922Z,981.34
2018-11-22T11:37:05.427Z,981.31
2018-11-22T11:38:04.737Z,981.17
2018-11-22T11:39:04.894Z,981.25
2018-11-22T11:40:04.698Z,981.17
2018-11-22T11:41:05.093Z,981.37
2018-11-22T11:42:05.461Z,981.28
2018-11-22T11:43:05.480Z,981.31
2018-11-22T11:44:05.112Z,981.31
2018-11-22T11:45:04.801Z,981.25
2018-11-22T11:46:04.674Z,981.34
2018-11-22T11:47:05.047Z,981.31
2018-11-22T11:48:04.544Z,981.39
2018-11-22T11:49:04.932Z,981.31
2018-11-22T11:50:05.047Z,981.26
2018-11-22T11:51:05.139Z,981.34
2018-11-22T11:52:06.339Z,981.34
2018-11-22T11:53:05.405Z,981.37
2018-11-22T11:54:04.675Z,981.20
2018-11-22T11:55:04.639Z,981.39
2018-11-22T11:56:04.729Z,981.34
2018-11-22T11:57:04.803Z,981.26
2018-11-22T11:58:05.079Z,981.42
2018-11-22T11:59:04.626Z,981.25
2018-11-22T12:00:04.601Z,981.23
2018-11-22T12:01:04.647Z,981.31
2018-11-22T12:02:04.678Z,981.37
2018-11-22T12:03:04.821Z,981.28
2018-11-22T12:04:04.767Z,981.28
2018-11-22T12:05:05.079Z,981.20
2018-11-22T12:06:04.989Z,981.20
2018-11-22T12:07:05.243Z,981.28
2018-11-22T12:08:05.080Z,981.17
2018-11-22T12:09:05.173Z,981.20
2018-11-22T12:10:04.864Z,981.28
2018-11-22T12:11:05.335Z,981.20
2018-11-22T12:12:05.228Z,981.23
2018-11-22T12:13:05.384Z,981.14
2018-11-22T12:14:05.555Z,981.28
2018-11-22T12:15:04.616Z,981.20
2018-11-22T12:16:04.630Z,981.14
2018-11-22T12:17:05.236Z,981.17
2018-11-22T12:18:05.342Z,981.31
2018-11-22T12:19:05.354Z,981.14
2018-11-22T12:20:04.759Z,981.14
2018-11-22T12:21:04.756Z,981.23
2018-11-22T12:22:04.953Z,981.14
2018-11-22T12:23:04.614Z,981.14
2018-11-22T12:24:05.320Z,981.14
2018-11-22T12:25:05.098Z,981.08
2018-11-22T12:26:05.033Z,981.17
2018-11-22T12:27:04.545Z,981.09
2018-11-22T12:28:04.694Z,981.17
2018-11-22T12:29:04.623Z,981.25